Date,TemperatureHighF,TemperatureAvgF,TemperatureLowF,DewpointHighF,DewpointAvgF,DewpointLowF,HumidityHigh,HumidityAvg,HumidityLow,PressureMaxIn,PressureMinIn,WindSpeedMaxMPH,WindSpeedAvgMPH,GustSpeedMaxMPH,PrecipitationSumIn
2013-1-1,36,31,17,40,38,34,76,64,53,29.94,29.72,27,3,27,0.00
2013-1-2,28,18,9,37,35,32,80,69,58,30.13,29.92,15,1,15,0.00
2013-1-3,24,14,4,36,33,30,75,61,37,30.17,30.00,9,1,9,0.00
2013-1-4,37,29,20,39,34,31,83,73,63,30.00,29.82,19,1,19,0.00
2013-1-5,40,32,20,38,36,33,88,69,51,30.26,29.86,14,1,14,0.00
2013-1-6,41,31,21,37,36,33,91,83,65,30.24,29.95,12,0,12,0.00
2013-1-7,38,30,18,38,36,34,91,76,52,30.40,29.97,8,0,8,0.00
2013-1-8,44,33,17,40,36,33,89,76,58,30.37,30.27,13,1,13,0.00
2013-1-9,44,34,21,41,36,34,93,80,58,30.40,30.01,15,1,15,0.00
2013-1-10,45,39,29,40,37,36,81,62,49,30.54,30.05,21,2,21,0.00
2013-1-11,38,31,22,40,36,34,95,86,71,30.54,30.22,4,0,4,0.00
2013-1-12,41,37,34,42,39,36,100,97,95,30.23,30.12,3,0,4,0.00
2013-1-13,48,43,37,43,41,38,98,98,96,30.15,29.99,7,0,7,0.00
2013-1-14,58,48,39,44,42,39,98,82,53,30.26,29.85,13,1,13,0.00
2013-1-15,40,35,29,42,40,38,92,74,59,30.33,30.22,7,0,7,0.00
2013-1-16,34,32,29,42,39,37,96,93,84,30.25,29.83,0,0,0,0.00
2013-1-17,41,34,28,42,39,38,96,79,57,30.10,29.83,7,1,12,0.00
2013-1-18,28,21,15,39,36,34,68,52,38,30.45,30.06,13,1,14,0.00
2013-1-19,45,36,20,39,36,33,77,63,51,30.38,29.88,18,1,18,0.00
2013-1-20,50,39,28,42,39,36,78,62,42,29.93,29.54,23,3,23,0.00
2013-1-21,28,24,20,41,37,34,92,65,50,30.10,29.80,15,1,15,0.00
2013-1-22,23,18,10,38,36,34,92,67,43,30.09,29.76,16,2,16,0.00
2013-1-23,15,10,6,38,34,29,76,53,40,30.16,30.07,16,2,16,0.00
2013-1-24,18,10,2,39,33,30,66,49,35,30.26,30.09,21,3,23,0.00
2013-1-25,22,15,5,39,35,30,85,47,31,30.33,30.07,12,2,12,0.00
2013-1-26,22,15,5,37,34,31,90,64,38,30.27,30.02,16,2,18,0.00
2013-1-27,30,19,12,37,33,32,70,53,35,30.48,30.26,14,2,16,0.00
2013-1-28,31,23,15,40,35,32,94,71,47,30.47,30.03,12,0,12,0.00
2013-1-29,33,29,24,41,37,34,95,93,88,30.20,30.03,5,0,6,0.00
2013-1-30,58,46,33,43,39,36,98,96,92,30.15,29.42,11,1,12,0.00
2013-1-31,60,46,30,44,42,37,96,73,48,29.59,28.95,33,5,33,0.00